Time;durP1;ratioP1;P1;durP2;ratioP2;P2;SDS_P1;SDS_P2;PMS_P1;PMS_P2;Temp;Humidity;BMP_temperature;BMP_pressure;BME280_temperature;BME280_humidity;BME280_pressure;Samples;Min_cycle;Max_cycle;Signal;HPM_P1;HPM_P2
2023/03/18 00:02:11;;;;;;;1.77;0.95;;;;;;;20.08;42.79;100728.41;5052738;27;97352;-75
2023/03/18 00:04:39;;;;;;;1.38;0.90;;;;;;;20.13;42.61;100729.56;5048482;27;96771;-74
2023/03/18 00:07:06;;;;;;;1.95;0.95;;;;;;;20.19;42.51;100717.13;5044383;27;96959;-75
2023/03/18 00:09:32;;;;;;;1.30;0.90;;;;;;;20.13;42.64;100715.94;5049914;27;96858;-75
2023/03/18 00:11:59;;;;;;;2.17;1.00;;;;;;;20.17;42.13;100719.19;5051201;27;97171;-75
2023/03/18 00:14:26;;;;;;;2.05;0.95;;;;;;;20.14;42.28;100714.91;5046401;27;96845;-75
2023/03/18 00:16:53;;;;;;;2.15;1.10;;;;;;;20.08;42.73;100709.31;5029328;27;98883;-74
2023/03/18 00:19:20;;;;;;;2.22;1.00;;;;;;;20.07;42.66;100696.72;5051429;27;96865;-75
2023/03/18 00:21:47;;;;;;;1.73;0.85;;;;;;;20.08;42.74;100704.72;5045942;27;97242;-74
2023/03/18 00:24:15;;;;;;;2.08;1.20;;;;;;;20.12;42.40;100707.94;5050396;27;96624;-75
2023/03/18 00:26:42;;;;;;;2.13;1.13;;;;;;;20.12;42.46;100716.13;5055785;27;97224;-75
2023/03/18 00:29:09;;;;;;;2.22;1.08;;;;;;;20.05;42.62;100715.09;5052329;27;96745;-75
2023/03/18 00:31:37;;;;;;;1.88;0.82;;;;;;;20.07;42.39;100718.50;5020704;27;97175;-75
2023/03/18 00:34:04;;;;;;;1.92;0.90;;;;;;;20.12;42.45;100716.97;5037785;27;97034;-75
2023/03/18 00:36:31;;;;;;;1.83;1.00;;;;;;;20.09;42.45;100722.78;5047353;27;96774;-74
2023/03/18 00:39:02;;;;;;;1.17;0.90;;;;;;;20.05;42.39;100724.13;5034282;27;98430;-75
2023/03/18 00:41:31;;;;;;;1.27;1.00;;;;;;;20.02;42.75;100729.91;5054757;27;96792;-75
2023/03/18 00:43:58;;;;;;;1.77;1.10;;;;;;;20.13;42.66;100728.72;5037107;27;97594;-75
2023/03/18 00:46:33;;;;;;;1.10;0.82;;;;;;;20.10;42.45;100735.38;5051765;27;97771;-75
2023/03/18 00:49:04;;;;;;;1.70;0.98;;;;;;;20.05;42.44;100740.47;5033338;27;98236;-75
2023/03/18 00:51:33;;;;;;;1.65;0.93;;;;;;;19.99;42.57;100741.16;5047183;27;96583;-75
2023/03/18 00:54:05;;;;;;;1.30;0.80;;;;;;;19.97;42.59;100738.59;5030397;27;96880;-75
2023/03/18 00:56:34;;;;;;;1.50;0.80;;;;;;;19.99;42.60;100738.44;5028487;27;97167;-75
2023/03/18 00:59:01;;;;;;;2.20;1.13;;;;;;;20.01;42.63;100736.38;5036947;27;99636;-75
2023/03/18 01:01:28;;;;;;;1.15;0.85;;;;;;;20.02;42.57;100739.97;5050500;27;96953;-75
2023/03/18 01:03:58;;;;;;;1.40;1.17;;;;;;;20.00;42.51;100741.00;5032292;27;98349;-75
2023/03/18 01:06:29;;;;;;;1.80;1.08;;;;;;;20.01;42.44;100741.84;5019761;27;100009;-75
2023/03/18 01:08:58;;;;;;;2.05;1.02;;;;;;;20.01;42.75;100744.56;5054611;27;97393;-74
2023/03/18 01:11:25;;;;;;;1.42;0.90;;;;;;;20.02;42.65;100745.41;5054162;27;96778;-74
2023/03/18 01:13:52;;;;;;;1.40;0.93;;;;;;;20.01;42.62;100744.56;5052534;27;96759;-75
2023/03/18 01:16:21;;;;;;;1.23;1.02;;;;;;;20.02;42.76;100751.72;5036024;27;100298;-75
2023/03/18 01:18:48;;;;;;;1.77;1.25;;;;;;;20.01;42.62;100747.28;5051723;27;98910;-75
2023/03/18 01:21:15;;;;;;;1.40;0.90;;;;;;;20.02;42.87;100749.00;5036000;27;96643;-75
2023/03/18 01:23:48;;;;;;;1.48;1.00;;;;;;;20.01;42.43;100752.75;5017750;27;96919;-75
2023/03/18 01:26:15;;;;;;;1.63;0.80;;;;;;;20.02;42.37;100750.88;5036017;27;98359;-75
2023/03/18 01:28:43;;;;;;;1.55;1.05;;;;;;;20.01;42.77;100755.47;5035971;27;99155;-75
2023/03/18 01:31:11;;;;;;;2.38;0.90;;;;;;;20.00;42.58;100751.03;5033395;27;96973;-75
2023/03/18 01:33:40;;;;;;;1.05;0.80;;;;;;;20.01;42.65;100750.00;5033185;27;96844;-75
2023/03/18 01:36:07;;;;;;;2.88;1.08;;;;;;;20.03;42.79;100737.06;5023334;27;99633;-75
2023/03/18 01:38:34;;;;;;;1.90;1.00;;;;;;;20.03;42.42;100737.06;5015871;27;97457;-75
2023/03/18 01:41:09;;;;;;;1.00;0.80;;;;;;;20.04;42.80;100748.81;5030692;27;97237;-75
2023/03/18 01:43:39;;;;;;;1.20;0.90;;;;;;;20.03;42.53;100745.25;5034850;27;96938;-75
2023/03/18 01:46:33;;;;;;;1.60;0.98;;;;;;;20.03;42.85;100747.97;5049005;27;97644;-75
2023/03/18 01:49:12;;;;;;;1.70;0.98;;;;;;;20.06;42.60;100752.22;5033798;27;100108;-75
2023/03/18 01:51:42;;;;;;;1.25;0.90;;;;;;;20.05;42.39;100753.25;5025101;27;96882;-75
2023/03/18 01:54:11;;;;;;;1.60;1.00;;;;;;;20.05;42.89;100748.66;5028091;27;96925;-75
2023/03/18 01:56:40;;;;;;;1.48;0.93;;;;;;;20.06;42.61;100744.91;5047270;27;98059;-75
2023/03/18 01:59:08;;;;;;;1.65;1.00;;;;;;;20.09;42.37;100732.81;5016279;27;98364;-75
2023/03/18 02:01:43;;;;;;;1.38;1.00;;;;;;;20.10;42.78;100732.66;5029273;27;96822;-75
2023/03/18 02:04:11;;;;;;;1.60;1.00;;;;;;;20.11;42.60;100731.63;5028853;27;97121;-75
2023/03/18 02:06:41;;;;;;;2.03;0.90;;;;;;;20.12;42.75;100730.59;5014189;27;100269;-75
2023/03/18 02:09:08;;;;;;;0.85;0.82;;;;;;;20.14;42.63;100730.44;5015610;27;99922;-75
2023/03/18 02:11:39;;;;;;;2.40;1.20;;;;;;;20.17;42.55;100724.63;5032855;27;97087;-75
2023/03/18 02:14:09;;;;;;;1.27;0.75;;;;;;;20.17;42.19;100730.09;5029431;27;97380;-75
2023/03/18 02:16:49;;;;;;;1.90;1.00;;;;;;;20.15;42.15;100732.97;5032896;27;100323;-75
2023/03/18 02:19:38;;;;;;;0.70;0.65;;;;;;;20.17;42.67;100736.38;5042498;27;98768;-75
2023/03/18 02:22:32;;;;;;;1.95;0.77;;;;;;;20.18;42.37;100743.53;5047841;27;96727;-75
2023/03/18 02:25:23;;;;;;;1.23;0.90;;;;;;;20.17;42.44;100741.84;5045986;27;97214;-75
2023/03/18 02:27:55;;;;;;;1.95;1.00;;;;;;;20.17;42.55;100741.84;5044971;27;98003;-75
2023/03/18 02:30:31;;;;;;;1.77;1.00;;;;;;;20.14;42.24;100742.19;5032413;27;100474;-75
2023/03/18 02:33:01;;;;;;;1.15;1.00;;;;;;;20.12;42.44;100743.38;5030318;27;96851;-75
2023/03/18 02:35:28;;;;;;;1.10;0.75;;;;;;;20.09;42.55;100744.59;5032370;27;97016;-75
2023/03/18 02:37:58;;;;;;;1.30;1.00;;;;;;;20.05;42.86;100745.91;5031389;27;99537;-75
2023/03/18 02:40:32;;;;;;;2.00;0.82;;;;;;;20.00;42.90;100753.75;5031311;27;99593;-75
2023/03/18 02:43:21;;;;;;;1.67;1.00;;;;;;;20.02;42.72;100754.44;5027926;27;96770;-75
2023/03/18 02:45:56;;;;;;;1.60;0.90;;;;;;;19.99;42.64;100755.63;5032958;27;96761;-74
2023/03/18 02:48:27;;;;;;;1.90;0.90;;;;;;;20.00;43.01;100765.53;5046049;27;97097;-75
2023/03/18 02:50:55;;;;;;;1.70;1.02;;;;;;;19.99;42.86;100761.09;5045107;27;96864;-75
2023/03/18 02:53:21;;;;;;;1.23;1.08;;;;;;;19.97;42.73;100762.28;5029701;27;97197;-75
2023/03/18 02:55:48;;;;;;;1.63;0.95;;;;;;;19.96;42.94;100771.50;5015122;27;97050;-75
2023/03/18 02:58:15;;;;;;;1.52;1.00;;;;;;;19.97;42.71;100778.66;5030140;27;99267;-75
2023/03/18 03:00:42;;;;;;;1.38;1.00;;;;;;;19.99;42.97;100777.44;5028781;27;99109;-75
2023/03/18 03:03:09;;;;;;;1.55;1.17;;;;;;;20.03;42.71;100777.97;5029017;27;96922;-75
2023/03/18 03:05:36;;;;;;;1.17;0.85;;;;;;;20.07;42.60;100782.06;5032533;27;96871;-75
2023/03/18 03:08:04;;;;;;;1.20;1.00;;;;;;;20.11;42.72;100788.03;5029181;27;99041;-75
2023/03/18 03:10:35;;;;;;;2.10;1.10;;;;;;;20.12;42.65;100784.28;5025490;27;100203;-75
2023/03/18 03:13:02;;;;;;;1.52;1.13;;;;;;;20.15;42.70;100776.59;5015976;27;96856;-75
2023/03/18 03:15:29;;;;;;;1.23;0.90;;;;;;;20.19;42.33;100777.97;5028596;27;97073;-75
2023/03/18 03:17:58;;;;;;;2.00;0.98;;;;;;;20.18;42.56;100780.88;5025547;27;98822;-75
2023/03/18 03:20:24;;;;;;;2.17;0.90;;;;;;;20.16;42.67;100783.75;5029299;27;99170;-74
2023/03/18 03:22:52;;;;;;;1.95;1.00;;;;;;;20.17;42.57;100790.06;5024164;27;97403;-75
2023/03/18 03:25:19;;;;;;;1.27;0.90;;;;;;;20.16;42.31;100794.66;5013007;27;96885;-75
2023/03/18 03:27:47;;;;;;;2.13;1.20;;;;;;;20.17;42.23;100795.53;5030523;27;100380;-74
2023/03/18 03:30:14;;;;;;;1.55;0.90;;;;;;;20.17;42.14;100793.66;5045639;27;97023;-75
2023/03/18 03:32:41;;;;;;;1.27;0.90;;;;;;;20.19;42.33;100798.94;5031773;27;96943;-75
2023/03/18 03:35:12;;;;;;;1.42;0.93;;;;;;;20.18;42.46;100800.81;5031602;27;97010;-75
2023/03/18 03:37:39;;;;;;;1.50;0.98;;;;;;;20.19;42.07;100796.19;5012894;27;100095;-75
2023/03/18 03:40:07;;;;;;;1.20;0.90;;;;;;;20.17;42.56;100801.81;5046367;27;96822;-75
2023/03/18 03:42:34;;;;;;;1.80;1.05;;;;;;;20.20;42.35;100804.22;5030998;27;96820;-75
2023/03/18 03:45:02;;;;;;;2.25;1.10;;;;;;;20.18;42.17;100808.97;5031224;27;97182;-75
2023/03/18 03:47:28;;;;;;;1.35;1.25;;;;;;;20.18;42.50;100810.84;5031388;27;98577;-75
2023/03/18 03:49:55;;;;;;;1.63;0.95;;;;;;;20.18;42.52;100808.97;5014313;27;99454;-75
2023/03/18 03:52:22;;;;;;;1.73;1.15;;;;;;;20.15;42.44;100809.34;5033182;27;97660;-75
2023/03/18 03:54:49;;;;;;;2.15;0.88;;;;;;;20.17;42.26;100812.72;5044520;27;97122;-74
2023/03/18 03:57:16;;;;;;;1.45;1.02;;;;;;;20.17;42.37;100814.63;5044918;27;98074;-74
2023/03/18 03:59:43;;;;;;;1.35;1.10;;;;;;;20.17;42.69;100812.72;5027357;27;96690;-75
2023/03/18 04:02:13;;;;;;;2.00;1.00;;;;;;;20.19;42.51;100812.56;5044930;27;96943;-74
2023/03/18 04:04:40;;;;;;;1.58;1.08;;;;;;;20.17;42.51;100812.72;5026772;27;97530;-74
2023/03/18 04:07:15;;;;;;;1.80;0.90;;;;;;;20.18;42.32;100811.72;5028468;27;99094;-74
2023/03/18 04:09:41;;;;;;;1.00;0.80;;;;;;;20.18;42.64;100813.59;5025975;27;99026;-75
2023/03/18 04:12:08;;;;;;;1.13;0.90;;;;;;;20.19;42.44;100820.75;5030420;27;97312;-74
2023/03/18 04:14:35;;;;;;;1.73;1.23;;;;;;;20.16;42.62;100816.50;5026206;27;97218;-74
2023/03/18 04:17:02;;;;;;;1.23;1.00;;;;;;;20.16;42.38;100821.94;5026398;27;99710;-74
2023/03/18 04:19:29;;;;;;;1.58;1.00;;;;;;;20.17;42.61;100822.78;5013131;27;98893;-74
2023/03/18 04:21:55;;;;;;;1.58;1.00;;;;;;;20.15;42.49;100822.97;5046217;27;98961;-74
2023/03/18 04:24:23;;;;;;;1.35;1.00;;;;;;;20.16;42.58;100830.13;5031232;27;96790;-74
2023/03/18 04:26:49;;;;;;;1.02;0.80;;;;;;;20.17;42.39;100826.38;5029104;27;99668;-75
2023/03/18 04:29:16;;;;;;;1.77;1.10;;;;;;;20.17;42.44;100837.28;5044191;27;97704;-75
2023/03/18 04:31:43;;;;;;;1.25;0.95;;;;;;;20.17;42.56;100837.28;5030664;27;97055;-74
2023/03/18 04:34:10;;;;;;;1.85;1.05;;;;;;;20.18;42.75;100830.81;5046393;27;97287;-74
2023/03/18 04:36:37;;;;;;;1.35;1.08;;;;;;;20.17;42.70;100829.09;5048868;27;97283;-75
2023/03/18 04:39:03;;;;;;;1.20;0.90;;;;;;;20.17;42.44;100831.81;5013438;27;97367;-75
2023/03/18 04:41:31;;;;;;;1.67;1.15;;;;;;;20.18;42.68;100830.81;5011312;27;96749;-75
2023/03/18 04:44:01;;;;;;;1.15;0.75;;;;;;;20.17;42.55;100828.25;5031717;27;98661;-74
2023/03/18 04:46:37;;;;;;;1.35;0.98;;;;;;;20.16;42.33;100832.84;5028117;27;100272;-74
2023/03/18 04:49:04;;;;;;;2.38;1.10;;;;;;;20.13;42.67;100827.72;5028270;27;100166;-75
2023/03/18 04:51:30;;;;;;;1.45;0.98;;;;;;;20.16;42.45;100830.13;5024832;27;96718;-74
2023/03/18 04:53:57;;;;;;;1.85;1.02;;;;;;;20.16;42.75;100826.53;5028297;27;96840;-75
2023/03/18 04:56:28;;;;;;;1.35;1.00;;;;;;;20.16;42.45;100832.00;5029844;27;100610;-74
2023/03/18 04:58:56;;;;;;;1.85;1.10;;;;;;;20.15;42.71;100836.59;5027516;27;96961;-74
2023/03/18 05:01:28;;;;;;;2.03;1.00;;;;;;;20.15;42.44;100828.41;5029396;27;96803;-75
2023/03/18 05:03:55;;;;;;;1.55;1.02;;;;;;;20.12;42.79;100839.66;5041447;27;96828;-75
2023/03/18 05:06:29;;;;;;;2.70;1.50;;;;;;;20.16;42.32;100840.19;5030497;27;97641;-74
2023/03/18 05:09:01;;;;;;;1.40;1.05;;;;;;;20.13;42.33;100837.78;5026275;27;97006;-74
2023/03/18 05:11:32;;;;;;;1.40;1.20;;;;;;;20.15;42.62;100839.31;5033773;27;96816;-75
2023/03/18 05:14:05;;;;;;;1.52;1.13;;;;;;;20.14;42.66;100834.03;5031272;27;97570;-74
2023/03/18 05:16:39;;;;;;;2.33;1.10;;;;;;;20.13;42.83;100838.66;5030227;27;99187;-74
2023/03/18 05:19:06;;;;;;;1.80;1.15;;;;;;;20.13;42.66;100844.09;5033230;27;98384;-74
2023/03/18 05:21:37;;;;;;;1.30;1.02;;;;;;;20.14;42.60;100844.94;5043139;27;97001;-74
2023/03/18 05:24:04;;;;;;;1.50;1.17;;;;;;;20.14;42.73;100850.41;5010430;27;96952;-75
2023/03/18 05:26:37;;;;;;;1.52;0.98;;;;;;;20.15;42.64;100850.22;5029151;27;98589;-75
2023/03/18 05:29:07;;;;;;;1.20;0.90;;;;;;;20.12;42.38;100845.13;5043584;27;98717;-75
2023/03/18 05:31:57;;;;;;;1.70;1.35;;;;;;;20.10;42.75;100863.53;5038938;27;96790;-74
2023/03/18 05:34:26;;;;;;;1.40;1.00;;;;;;;20.08;42.61;100857.38;5030766;27;96815;-74
2023/03/18 05:36:53;;;;;;;1.65;0.98;;;;;;;20.12;42.66;100857.91;5016697;27;96878;-74
2023/03/18 05:39:20;;;;;;;1.30;0.90;;;;;;;20.10;42.74;100847.16;5031030;27;100430;-75
2023/03/18 05:41:47;;;;;;;1.25;0.93;;;;;;;20.11;42.48;100859.78;5014087;27;96894;-74
2023/03/18 05:44:21;;;;;;;1.45;1.00;;;;;;;20.09;42.66;100864.53;5017701;27;96863;-74
2023/03/18 05:46:51;;;;;;;1.20;0.80;;;;;;;20.10;42.77;100854.50;5030305;27;97645;-75
2023/03/18 05:49:33;;;;;;;1.50;0.90;;;;;;;20.08;42.67;100862.84;5023421;27;98771;-74
2023/03/18 05:52:28;;;;;;;;;;;;;;;20.08;42.83;100856.53;5037695;27;96876;-75
2023/03/18 05:54:59;;;;;;;1.48;0.98;;;;;;;20.11;42.72;100857.03;5026018;27;96778;-75
2023/03/18 05:57:31;;;;;;;1.60;1.00;;;;;;;20.09;42.93;100859.09;5029259;27;100418;-74
2023/03/18 06:00:01;;;;;;;1.38;1.00;;;;;;;20.08;42.61;100857.38;5029794;27;98886;-75
2023/03/18 06:02:41;;;;;;;1.45;0.90;;;;;;;20.09;42.59;100859.09;5043373;27;96660;-75
2023/03/18 06:05:09;;;;;;;1.67;0.90;;;;;;;20.10;43.00;100868.13;5033009;27;97006;-75
2023/03/18 06:07:36;;;;;;;1.17;0.90;;;;;;;20.10;42.88;100877.16;5048579;27;97287;-74
2023/03/18 06:10:03;;;;;;;1.90;1.05;;;;;;;20.11;42.72;100886.19;5028602;27;99193;-74
2023/03/18 06:12:29;;;;;;;3.13;1.10;;;;;;;20.09;42.93;100891.81;5044893;27;96713;-74
2023/03/18 06:14:57;;;;;;;0.77;0.70;;;;;;;20.10;42.84;100889.94;5033819;27;96666;-74
2023/03/18 06:17:24;;;;;;;1.60;0.90;;;;;;;20.10;42.62;100882.59;5034523;27;98603;-74
2023/03/18 06:19:51;;;;;;;1.48;1.00;;;;;;;20.11;42.60;100887.03;5029760;27;97528;-74
2023/03/18 06:22:17;;;;;;;1.25;0.75;;;;;;;20.12;42.93;100887.91;5033219;27;98031;-74
2023/03/18 06:24:44;;;;;;;1.20;0.98;;;;;;;20.11;42.60;100886.19;5051414;27;96701;-74
2023/03/18 06:27:15;;;;;;;0.98;0.80;;;;;;;20.12;42.61;100885.16;5031125;27;97767;-74
2023/03/18 06:29:44;;;;;;;1.92;1.05;;;;;;;20.13;42.53;100881.41;5032692;27;100216;-74
2023/03/18 06:32:14;;;;;;;0.82;0.80;;;;;;;20.15;42.95;100887.56;5030691;27;96553;-74
2023/03/18 06:34:42;;;;;;;1.15;0.93;;;;;;;20.15;42.89;100877.50;5032975;27;97454;-74
2023/03/18 06:37:09;;;;;;;1.40;0.93;;;;;;;20.16;42.79;100883.81;5031895;27;100442;-74
2023/03/18 06:39:36;;;;;;;2.15;1.10;;;;;;;20.13;42.86;100886.88;5024972;27;99450;-75
2023/03/18 06:42:06;;;;;;;1.88;1.00;;;;;;;20.15;42.68;100885.69;5030422;27;97265;-74
2023/03/18 06:44:36;;;;;;;1.13;0.80;;;;;;;20.16;42.65;100894.72;5031330;27;97215;-74
2023/03/18 06:47:12;;;;;;;1.33;0.90;;;;;;;20.17;42.87;100888.22;5032487;27;100507;-74
2023/03/18 06:49:45;;;;;;;1.23;1.00;;;;;;;20.15;42.88;100902.03;5031627;27;98605;-74
2023/03/18 06:52:17;;;;;;;1.33;0.93;;;;;;;20.15;42.83;100902.03;5032516;27;97065;-74
2023/03/18 06:54:46;;;;;;;1.27;0.90;;;;;;;20.16;42.72;100895.56;5031155;27;97270;-75
2023/03/18 06:57:15;;;;;;;1.15;0.90;;;;;;;20.17;42.58;100905.44;5027156;27;99808;-75
2023/03/18 06:59:41;;;;;;;1.42;1.00;;;;;;;20.17;42.62;100904.59;5013401;27;99354;-75
2023/03/18 07:02:09;;;;;;;1.10;0.85;;;;;;;20.19;42.83;100897.09;5045902;27;97010;-75
2023/03/18 07:04:36;;;;;;;1.42;0.88;;;;;;;20.19;42.58;100903.41;5028598;27;96836;-75
2023/03/18 07:07:03;;;;;;;1.15;0.82;;;;;;;20.18;42.99;100911.75;5045789;27;97654;-75
2023/03/18 07:09:32;;;;;;;0.98;0.88;;;;;;;20.21;42.61;100905.97;5025204;27;99048;-75
2023/03/18 07:11:59;;;;;;;1.30;0.85;;;;;;;20.22;42.79;100911.25;5029962;27;96831;-75
2023/03/18 07:14:27;;;;;;;1.23;0.80;;;;;;;20.24;42.77;100919.25;5051107;27;96696;-75
2023/03/18 07:16:54;;;;;;;1.50;1.40;;;;;;;20.26;42.52;100923.50;5027761;27;97387;-75
2023/03/18 07:19:21;;;;;;;1.20;0.90;;;;;;;20.23;42.43;100921.13;5020637;27;99085;-75
2023/03/18 07:21:49;;;;;;;1.55;0.90;;;;;;;20.22;42.42;100926.75;5017684;27;98688;-75
2023/03/18 07:24:16;;;;;;;1.27;0.98;;;;;;;20.26;42.63;100930.84;5025588;27;96989;-75
2023/03/18 07:26:42;;;;;;;1.30;0.90;;;;;;;20.27;42.82;100936.13;5037232;27;98512;-76
2023/03/18 07:29:09;;;;;;;1.48;0.90;;;;;;;20.30;42.74;100938.53;5024119;27;98691;-75
2023/03/18 07:31:37;;;;;;;1.38;0.85;;;;;;;20.34;42.72;100944.50;5013552;27;97128;-75
2023/03/18 07:34:03;;;;;;;1.10;0.95;;;;;;;20.36;42.38;100947.91;5026571;27;98421;-75
2023/03/18 07:36:30;;;;;;;1.80;1.10;;;;;;;20.34;42.37;100954.53;5033414;27;96710;-75
2023/03/18 07:38:58;;;;;;;1.65;0.98;;;;;;;20.34;42.52;100943.63;5021462;27;98677;-75
2023/03/18 07:41:25;;;;;;;0.82;0.70;;;;;;;20.35;42.74;100945.34;5034458;27;97189;-75
2023/03/18 07:43:52;;;;;;;2.63;1.00;;;;;;;20.29;42.58;100953.19;5026207;27;96929;-75
2023/03/18 07:46:19;;;;;;;1.85;1.00;;;;;;;20.26;42.84;100947.22;5030497;27;100257;-75
2023/03/18 07:48:46;;;;;;;1.45;1.10;;;;;;;20.24;42.98;100954.72;5031936;27;99346;-75
2023/03/18 07:51:14;;;;;;;1.48;0.90;;;;;;;20.24;42.76;100955.56;5036327;27;96723;-75
2023/03/18 07:53:42;;;;;;;1.30;1.00;;;;;;;20.19;42.94;100957.09;5031199;27;97303;-75
2023/03/18 07:56:08;;;;;;;2.50;1.05;;;;;;;20.16;43.15;100958.28;5030781;27;96808;-75
2023/03/18 07:58:36;;;;;;;0.93;0.70;;;;;;;20.09;42.90;100959.97;5047894;27;97303;-75
2023/03/18 08:01:03;;;;;;;1.20;0.90;;;;;;;20.13;43.30;100972.25;5041015;27;96839;-75
2023/03/18 08:03:30;;;;;;;1.42;0.93;;;;;;;20.11;42.97;100973.44;5029011;28;97488;-75
2023/03/18 08:05:56;;;;;;;1.73;0.93;;;;;;;20.09;43.45;100970.88;5033896;27;97781;-75
2023/03/18 08:08:23;;;;;;;1.67;0.95;;;;;;;20.07;43.00;100972.91;5046050;27;97110;-75
2023/03/18 08:10:51;;;;;;;1.42;0.93;;;;;;;20.08;43.53;100976.50;5041428;27;96796;-75
2023/03/18 08:13:17;;;;;;;1.35;0.95;;;;;;;20.04;43.08;100975.09;5039743;27;96736;-75
2023/03/18 08:15:44;;;;;;;1.20;1.00;;;;;;;20.04;43.53;100975.94;5049183;27;97541;-75
2023/03/18 08:18:10;;;;;;;1.60;0.90;;;;;;;20.05;43.62;100977.66;5050436;27;97170;-75
2023/03/18 08:20:37;;;;;;;1.65;1.20;;;;;;;20.07;43.27;100975.66;5047471;27;96705;-75
2023/03/18 08:23:03;;;;;;;1.38;0.88;;;;;;;20.10;43.53;100975.31;5050669;27;96953;-75
2023/03/18 08:25:31;;;;;;;1.00;0.80;;;;;;;20.07;43.36;100972.91;5049528;27;96748;-75
2023/03/18 08:27:58;;;;;;;1.13;0.90;;;;;;;20.08;43.54;100977.34;5020659;28;98572;-75
2023/03/18 08:30:27;;;;;;;1.13;0.88;;;;;;;20.07;43.31;100966.63;5043090;27;96680;-75
2023/03/18 08:32:54;;;;;;;1.08;0.80;;;;;;;20.08;43.62;100963.72;5024389;27;96940;-75
2023/03/18 08:35:22;;;;;;;1.73;0.90;;;;;;;20.12;43.24;100967.81;5032227;27;97439;-75
2023/03/18 08:37:50;;;;;;;1.35;0.82;;;;;;;20.09;43.32;100973.59;5012727;28;96996;-75
2023/03/18 08:40:19;;;;;;;1.38;0.77;;;;;;;20.07;43.32;100977.53;5012008;28;96988;-75
2023/03/18 08:42:45;;;;;;;1.98;1.08;;;;;;;20.06;43.67;100973.06;5030384;27;96593;-75
2023/03/18 08:45:12;;;;;;;1.35;0.82;;;;;;;20.05;43.58;100979.53;5016887;27;99715;-75
2023/03/18 08:47:39;;;;;;;1.13;0.80;;;;;;;20.06;43.58;100968.47;5044948;27;96663;-75
2023/03/18 08:50:05;;;;;;;1.73;0.90;;;;;;;20.05;43.33;100976.81;5048239;27;98142;-75
2023/03/18 08:52:32;;;;;;;0.95;0.80;;;;;;;20.02;43.42;100979.88;5053874;27;96973;-75
2023/03/18 08:54:59;;;;;;;1.45;0.95;;;;;;;20.01;43.60;100987.19;5053136;27;96837;-75
2023/03/18 08:57:26;;;;;;;1.20;1.00;;;;;;;20.00;43.98;100986.34;5053394;27;96638;-75
2023/03/18 08:59:53;;;;;;;1.00;0.80;;;;;;;19.96;43.69;100984.09;5036887;27;96781;-75
2023/03/18 09:02:20;;;;;;;1.65;0.80;;;;;;;19.99;44.01;100983.78;5033577;27;96889;-75
2023/03/18 09:04:47;;;;;;;1.23;1.00;;;;;;;20.03;43.87;100987.88;5032979;27;97370;-75
2023/03/18 09:07:14;;;;;;;1.80;0.90;;;;;;;20.05;43.98;100982.25;5043400;27;97269;-75
2023/03/18 09:09:43;;;;;;;1.95;1.00;;;;;;;20.06;43.63;100984.81;5017852;27;97062;-75
2023/03/18 09:12:11;;;;;;;1.02;0.60;;;;;;;20.03;43.61;100982.44;5035105;27;96775;-75
2023/03/18 09:14:39;;;;;;;1.30;0.95;;;;;;;20.00;43.91;100980.88;5052424;27;97738;-75
2023/03/18 09:17:05;;;;;;;1.85;1.02;;;;;;;20.02;43.59;100982.59;5052683;27;97893;-75
2023/03/18 09:19:32;;;;;;;1.73;0.80;;;;;;;20.02;43.81;100977.13;5052571;27;96829;-75
2023/03/18 09:21:58;;;;;;;1.35;0.75;;;;;;;20.06;43.64;100981.22;5053354;27;97099;-75
2023/03/18 09:24:25;;;;;;;0.90;0.73;;;;;;;20.04;43.66;100986.84;5051304;27;97182;-75
2023/03/18 09:26:52;;;;;;;1.30;0.70;;;;;;;20.02;43.78;100986.16;5032319;27;97678;-75
2023/03/18 09:29:18;;;;;;;1.90;0.68;;;;;;;20.03;43.58;100979.69;5031989;27;96716;-75
2023/03/18 09:31:45;;;;;;;2.10;0.90;;;;;;;20.05;44.09;100974.94;5014647;27;96672;-75
2023/03/18 09:34:13;;;;;;;1.20;0.85;;;;;;;20.08;44.03;100979.22;5031520;27;97988;-75
2023/03/18 09:36:40;;;;;;;1.30;1.00;;;;;;;20.12;43.54;100981.44;5048982;27;96653;-75
2023/03/18 09:39:08;;;;;;;1.35;0.80;;;;;;;20.16;43.63;100982.81;5024813;28;97131;-76
2023/03/18 09:41:49;;;;;;;2.15;0.73;;;;;;;20.21;43.62;100980.44;5032707;27;96677;-75
2023/03/18 09:44:25;;;;;;;1.13;0.90;;;;;;;20.32;43.65;100984.72;5033133;27;98120;-75
2023/03/18 09:47:17;;;;;;;2.25;0.98;;;;;;;20.40;43.53;100992.94;5048375;27;97420;-76
2023/03/18 09:50:08;;;;;;;1.73;0.93;;;;;;;20.42;43.16;100995.50;5033686;27;96855;-75
2023/03/18 09:52:42;;;;;;;0.90;0.60;;;;;;;20.43;43.19;100997.19;5033528;27;96886;-75
2023/03/18 09:55:29;;;;;;;1.27;0.80;;;;;;;20.46;43.16;101002.31;5032914;27;97421;-75
2023/03/18 09:58:01;;;;;;;1.40;0.80;;;;;;;20.47;42.98;100999.44;5015240;27;99902;-75
2023/03/18 10:00:30;;;;;;;1.52;0.98;;;;;;;20.51;43.39;101005.41;5033182;27;96949;-75
2023/03/18 10:03:02;;;;;;;1.55;0.80;;;;;;;20.51;43.02;101006.25;5039514;27;97266;-76
2023/03/18 10:05:39;;;;;;;1.00;0.80;;;;;;;20.54;42.88;101010.50;5025044;27;100181;-75
2023/03/18 10:08:22;;;;;;;1.27;0.80;;;;;;;20.53;42.81;101012.38;5036746;27;97266;-75
2023/03/18 10:10:51;;;;;;;1.02;0.80;;;;;;;20.53;43.20;101014.25;5043811;27;98439;-75
2023/03/18 10:13:28;;;;;;;1.25;0.80;;;;;;;20.53;42.76;101014.25;5039311;27;96582;-75
2023/03/18 10:15:58;;;;;;;1.23;0.70;;;;;;;20.54;43.01;101015.97;5028509;27;96708;-74
2023/03/18 10:18:38;;;;;;;1.05;0.75;;;;;;;20.56;43.04;101013.91;5040016;27;98739;-75
2023/03/18 10:21:41;;;;;;;1.75;0.63;;;;;;;20.57;42.92;101012.91;5040941;27;96752;-75
2023/03/18 10:24:24;;;;;;;1.77;0.80;;;;;;;20.55;42.83;101002.16;5026935;27;97146;-75
2023/03/18 10:27:29;;;;;;;0.82;0.63;;;;;;;20.58;42.74;101000.97;5029762;27;98261;-74
2023/03/18 10:30:17;;;;;;;0.82;0.70;;;;;;;20.56;43.32;101000.28;5050763;27;97120;-76
2023/03/18 10:32:57;;;;;;;2.22;0.95;;;;;;;20.57;42.83;100997.38;5051524;27;97030;-75
2023/03/18 10:35:40;;;;;;;1.80;0.80;;;;;;;20.61;42.76;101003.34;5032092;27;96828;-75
2023/03/18 10:38:35;;;;;;;1.00;0.70;;;;;;;20.63;42.67;101004.03;5031859;27;97851;-75
2023/03/18 10:41:11;;;;;;;;;;;;;;;20.66;42.70;100997.38;5031676;27;98100;-75
2023/03/18 10:43:38;;;;;;;1.00;0.60;;;;;;;20.69;43.02;100999.78;5014244;28;96785;-76
2023/03/18 10:46:10;;;;;;;1.23;0.80;;;;;;;20.71;42.67;101000.44;5041211;27;97154;-75
2023/03/18 10:48:54;;;;;;;2.05;0.90;;;;;;;20.71;42.96;101001.31;5051026;27;96743;-75
2023/03/18 10:51:31;;;;;;;1.50;0.90;;;;;;;20.72;42.66;100999.44;5051541;27;97884;-75
2023/03/18 10:54:31;;;;;;;1.17;0.70;;;;;;;20.75;42.63;100993.63;5039522;27;96753;-75
2023/03/18 10:56:58;;;;;;;0.82;0.75;;;;;;;20.74;42.90;100995.50;5051471;27;97215;-75
2023/03/18 10:59:27;;;;;;;0.73;0.60;;;;;;;20.75;42.84;100994.47;5038491;27;96765;-75
2023/03/18 11:02:03;;;;;;;0.73;0.60;;;;;;;20.76;42.89;100989.88;5026582;27;96885;-75
2023/03/18 11:04:41;;;;;;;1.48;0.82;;;;;;;20.76;42.64;100976.22;5035170;27;96842;-74
2023/03/18 11:07:16;;;;;;;0.70;0.70;;;;;;;20.78;42.46;100980.47;5046862;27;97015;-75
2023/03/18 11:09:43;;;;;;;0.80;0.60;;;;;;;20.79;42.97;100982.19;5044877;27;96876;-75
2023/03/18 11:12:22;;;;;;;1.33;0.93;;;;;;;20.79;42.45;100978.59;5046312;27;96708;-75
2023/03/18 11:14:50;;;;;;;0.90;0.60;;;;;;;20.78;42.61;100983.22;5045053;27;97133;-75
2023/03/18 11:17:32;;;;;;;0.93;0.65;;;;;;;20.78;42.86;100980.47;5045456;27;97062;-75
2023/03/18 11:20:06;;;;;;;0.80;0.60;;;;;;;20.77;42.69;100984.25;5041732;27;97656;-75
2023/03/18 11:22:35;;;;;;;1.63;0.80;;;;;;;20.79;42.63;100975.88;5030690;27;96892;-75
2023/03/18 11:25:02;;;;;;;1.45;0.70;;;;;;;20.81;42.63;100971.13;5014759;27;97317;-75
2023/03/18 11:27:39;;;;;;;1.45;0.90;;;;;;;20.81;42.74;100973.88;5051229;27;97034;-75
2023/03/18 11:30:27;;;;;;;0.93;0.80;;;;;;;20.80;42.85;100967.53;5035654;27;97546;-75
2023/03/18 11:33:03;;;;;;;2.30;1.00;;;;;;;20.80;42.48;100964.78;5043894;27;97242;-75
2023/03/18 11:35:52;;;;;;;0.85;0.70;;;;;;;20.82;42.62;100972.84;5026034;27;96814;-74
2023/03/18 11:38:20;;;;;;;1.42;0.70;;;;;;;20.82;42.61;100978.28;5022844;27;97051;-75
2023/03/18 11:40:46;;;;;;;1.30;0.70;;;;;;;20.81;42.64;100973.88;5037428;27;97704;-75